sensor_id;sensor_type;location;lat;lon;timestamp;temperature;humidity
19862;DHT22;10093;48.148;8.542;2023-02-15T00:01:28;-3.10;99.90
19862;DHT22;10093;48.148;8.542;2023-02-15T00:03:54;-3.20;99.90
19862;DHT22;10093;48.148;8.542;2023-02-15T00:06:20;-3.20;99.90
19862;DHT22;10093;48.148;8.542;2023-02-15T00:08:45;-3.00;99.90
19862;DHT22;10093;48.148;8.542;2023-02-15T00:11:14;-2.90;99.90
19862;DHT22;10093;48.148;8.542;2023-02-15T00:13:40;-2.90;99.90
19862;DHT22;10093;48.148;8.542;2023-02-15T00:16:11;-3.10;99.90
19862;DHT22;10093;48.148;8.542;2023-02-15T00:18:38;-3.00;99.90
19862;DHT22;10093;48.148;8.542;2023-02-15T00:21:09;-2.90;99.90
19862;DHT22;10093;48.148;8.542;2023-02-15T00:23:36;-2.80;99.90
19862;DHT22;10093;48.148;8.542;2023-02-15T00:26:10;-2.90;99.90
19862;DHT22;10093;48.148;8.542;2023-02-15T00:28:36;-2.90;99.90
19862;DHT22;10093;48.148;8.542;2023-02-15T00:31:07;-2.90;99.90
19862;DHT22;10093;48.148;8.542;2023-02-15T00:33:33;-2.90;99.90
19862;DHT22;10093;48.148;8.542;2023-02-15T00:36:00;-2.90;99.90
19862;DHT22;10093;48.148;8.542;2023-02-15T00:38:27;-3.00;99.90
19862;DHT22;10093;48.148;8.542;2023-02-15T00:41:01;-3.00;99.90
19862;DHT22;10093;48.148;8.542;2023-02-15T00:43:27;-3.10;99.90
19862;DHT22;10093;48.148;8.542;2023-02-15T00:45:53;-3.10;99.90
19862;DHT22;10093;48.148;8.542;2023-02-15T00:48:19;-3.20;99.90
19862;DHT22;10093;48.148;8.542;2023-02-15T00:50:46;-3.40;99.90
19862;DHT22;10093;48.148;8.542;2023-02-15T00:53:12;-3.50;99.90
19862;DHT22;10093;48.148;8.542;2023-02-15T00:55:38;-3.50;99.90
19862;DHT22;10093;48.148;8.542;2023-02-15T00:58:09;-3.40;99.90
19862;DHT22;10093;48.148;8.542;2023-02-15T01:00:35;-3.50;99.90
19862;DHT22;10093;48.148;8.542;2023-02-15T01:03:01;-3.30;99.90
19862;DHT22;10093;48.148;8.542;2023-02-15T01:05:27;-3.20;99.90
19862;DHT22;10093;48.148;8.542;2023-02-15T01:07:52;-3.10;99.90
19862;DHT22;10093;48.148;8.542;2023-02-15T01:10:18;-2.90;99.90
19862;DHT22;10093;48.148;8.542;2023-02-15T01:12:43;-2.80;99.90
19862;DHT22;10093;48.148;8.542;2023-02-15T01:15:09;-2.90;99.90
19862;DHT22;10093;48.148;8.542;2023-02-15T01:17:35;-2.80;99.90
19862;DHT22;10093;48.148;8.542;2023-02-15T01:20:01;-2.70;99.90
19862;DHT22;10093;48.148;8.542;2023-02-15T01:22:27;-2.60;99.90
19862;DHT22;10093;48.148;8.542;2023-02-15T01:24:52;-2.60;99.90
19862;DHT22;10093;48.148;8.542;2023-02-15T01:27:18;-2.50;99.90
19862;DHT22;10093;48.148;8.542;2023-02-15T01:29:44;-2.50;99.90
19862;DHT22;10093;48.148;8.542;2023-02-15T01:32:09;-2.80;99.90
19862;DHT22;10093;48.148;8.542;2023-02-15T01:34:35;-2.70;99.90
19862;DHT22;10093;48.148;8.542;2023-02-15T01:37:01;-2.80;99.90
19862;DHT22;10093;48.148;8.542;2023-02-15T01:39:26;-2.90;99.90
19862;DHT22;10093;48.148;8.542;2023-02-15T01:41:52;-2.80;99.90
19862;DHT22;10093;48.148;8.542;2023-02-15T01:44:52;-3.10;99.90
19862;DHT22;10093;48.148;8.542;2023-02-15T01:47:52;-3.10;99.90
19862;DHT22;10093;48.148;8.542;2023-02-15T01:50:46;-3.20;99.90
19862;DHT22;10093;48.148;8.542;2023-02-15T01:55:58;-3.30;99.90
19862;DHT22;10093;48.148;8.542;2023-02-15T01:58:26;-3.40;99.90
19862;DHT22;10093;48.148;8.542;2023-02-15T02:00:53;-3.40;99.90
19862;DHT22;10093;48.148;8.542;2023-02-15T02:06:10;-3.30;99.90
19862;DHT22;10093;48.148;8.542;2023-02-15T02:08:35;-3.40;99.90
19862;DHT22;10093;48.148;8.542;2023-02-15T02:11:01;-3.40;99.90
19862;DHT22;10093;48.148;8.542;2023-02-15T02:13:27;-3.40;99.90
19862;DHT22;10093;48.148;8.542;2023-02-15T02:16:09;-3.60;99.90
19862;DHT22;10093;48.148;8.542;2023-02-15T02:18:49;-3.50;99.90
19862;DHT22;10093;48.148;8.542;2023-02-15T02:24:29;-3.60;99.90
19862;DHT22;10093;48.148;8.542;2023-02-15T02:33:03;-3.60;99.90
19862;DHT22;10093;48.148;8.542;2023-02-15T02:38:28;-3.50;99.90
19862;DHT22;10093;48.148;8.542;2023-02-15T02:43:37;-3.40;99.90
19862;DHT22;10093;48.148;8.542;2023-02-15T02:46:15;-3.40;99.90
19862;DHT22;10093;48.148;8.542;2023-02-15T02:48:45;-3.40;99.90
19862;DHT22;10093;48.148;8.542;2023-02-15T02:51:10;-3.30;99.90
19862;DHT22;10093;48.148;8.542;2023-02-15T02:53:36;-3.30;99.90
19862;DHT22;10093;48.148;8.542;2023-02-15T02:56:18;-3.40;99.90
19862;DHT22;10093;48.148;8.542;2023-02-15T02:58:54;-3.40;99.90
19862;DHT22;10093;48.148;8.542;2023-02-15T03:01:29;-3.50;99.90
19862;DHT22;10093;48.148;8.542;2023-02-15T03:04:00;-3.60;99.90
19862;DHT22;10093;48.148;8.542;2023-02-15T03:06:36;-3.60;99.90
19862;DHT22;10093;48.148;8.542;2023-02-15T03:09:23;-3.60;99.90
19862;DHT22;10093;48.148;8.542;2023-02-15T03:11:50;-3.70;99.90
19862;DHT22;10093;48.148;8.542;2023-02-15T03:14:18;-3.50;99.90
19862;DHT22;10093;48.148;8.542;2023-02-15T03:16:47;-3.70;99.90
19862;DHT22;10093;48.148;8.542;2023-02-15T03:19:22;-3.80;99.90
19862;DHT22;10093;48.148;8.542;2023-02-15T03:21:56;-3.70;99.90
19862;DHT22;10093;48.148;8.542;2023-02-15T03:24:53;-3.60;99.90
19862;DHT22;10093;48.148;8.542;2023-02-15T03:27:27;-3.60;99.90
19862;DHT22;10093;48.148;8.542;2023-02-15T03:29:58;-3.60;99.90
19862;DHT22;10093;48.148;8.542;2023-02-15T03:32:26;-3.80;99.90
19862;DHT22;10093;48.148;8.542;2023-02-15T03:34:54;-3.70;99.90
19862;DHT22;10093;48.148;8.542;2023-02-15T03:37:33;-3.80;99.90
19862;DHT22;10093;48.148;8.542;2023-02-15T03:45:52;-3.80;99.90
19862;DHT22;10093;48.148;8.542;2023-02-15T03:48:39;-3.90;99.90
19862;DHT22;10093;48.148;8.542;2023-02-15T03:51:09;-4.00;99.90
19862;DHT22;10093;48.148;8.542;2023-02-15T03:53:55;-3.90;99.90
19862;DHT22;10093;48.148;8.542;2023-02-15T03:56:22;-3.90;99.90
19862;DHT22;10093;48.148;8.542;2023-02-15T03:58:48;-3.90;99.90
19862;DHT22;10093;48.148;8.542;2023-02-15T04:01:39;-3.70;99.90
19862;DHT22;10093;48.148;8.542;2023-02-15T04:04:25;-3.70;99.90
19862;DHT22;10093;48.148;8.542;2023-02-15T04:06:51;-3.80;99.90
19862;DHT22;10093;48.148;8.542;2023-02-15T04:09:17;-3.80;99.90
19862;DHT22;10093;48.148;8.542;2023-02-15T04:12:01;-3.90;99.90
19862;DHT22;10093;48.148;8.542;2023-02-15T04:14:26;-3.90;99.90
19862;DHT22;10093;48.148;8.542;2023-02-15T04:17:10;-4.10;99.90
19862;DHT22;10093;48.148;8.542;2023-02-15T04:19:36;-4.20;99.90
19862;DHT22;10093;48.148;8.542;2023-02-15T04:22:21;-4.10;99.90
19862;DHT22;10093;48.148;8.542;2023-02-15T04:25:05;-4.30;99.90
19862;DHT22;10093;48.148;8.542;2023-02-15T04:27:49;-4.20;99.90
19862;DHT22;10093;48.148;8.542;2023-02-15T04:30:16;-4.30;99.90
19862;DHT22;10093;48.148;8.542;2023-02-15T04:32:43;-4.20;99.90
19862;DHT22;10093;48.148;8.542;2023-02-15T04:35:09;-4.20;99.90
19862;DHT22;10093;48.148;8.542;2023-02-15T04:37:35;-4.20;99.90
19862;DHT22;10093;48.148;8.542;2023-02-15T04:40:01;-4.20;99.90
19862;DHT22;10093;48.148;8.542;2023-02-15T04:42:27;-4.30;99.90
19862;DHT22;10093;48.148;8.542;2023-02-15T04:44:54;-4.20;99.90
19862;DHT22;10093;48.148;8.542;2023-02-15T04:47:19;-4.20;99.90
19862;DHT22;10093;48.148;8.542;2023-02-15T04:49:45;-4.10;99.90
19862;DHT22;10093;48.148;8.542;2023-02-15T04:52:11;-4.10;99.90
19862;DHT22;10093;48.148;8.542;2023-02-15T04:54:36;-4.20;99.90
19862;DHT22;10093;48.148;8.542;2023-02-15T04:57:03;-4.50;99.90
19862;DHT22;10093;48.148;8.542;2023-02-15T04:59:29;-4.60;99.90
19862;DHT22;10093;48.148;8.542;2023-02-15T05:01:55;-4.70;99.90
19862;DHT22;10093;48.148;8.542;2023-02-15T05:04:20;-4.60;99.90
19862;DHT22;10093;48.148;8.542;2023-02-15T05:06:46;-4.60;99.90
19862;DHT22;10093;48.148;8.542;2023-02-15T05:09:12;-4.50;99.90
19862;DHT22;10093;48.148;8.542;2023-02-15T05:11:37;-4.40;99.90
19862;DHT22;10093;48.148;8.542;2023-02-15T05:14:03;-4.70;99.90
19862;DHT22;10093;48.148;8.542;2023-02-15T05:16:29;-4.90;99.90
19862;DHT22;10093;48.148;8.542;2023-02-15T05:18:55;-4.90;99.90
19862;DHT22;10093;48.148;8.542;2023-02-15T05:21:20;-4.70;99.90
19862;DHT22;10093;48.148;8.542;2023-02-15T05:23:46;-4.70;99.90
19862;DHT22;10093;48.148;8.542;2023-02-15T05:26:15;-4.70;99.90
19862;DHT22;10093;48.148;8.542;2023-02-15T05:28:59;-4.60;99.90
19862;DHT22;10093;48.148;8.542;2023-02-15T05:31:25;-4.40;99.90
19862;DHT22;10093;48.148;8.542;2023-02-15T05:33:50;-4.40;99.90
19862;DHT22;10093;48.148;8.542;2023-02-15T05:36:16;-4.50;99.90
19862;DHT22;10093;48.148;8.542;2023-02-15T05:38:42;-4.50;99.90
19862;DHT22;10093;48.148;8.542;2023-02-15T05:41:09;-4.50;99.90
19862;DHT22;10093;48.148;8.542;2023-02-15T05:43:35;-4.60;99.90
19862;DHT22;10093;48.148;8.542;2023-02-15T05:46:00;-4.80;99.90
19862;DHT22;10093;48.148;8.542;2023-02-15T05:48:27;-4.60;99.90
19862;DHT22;10093;48.148;8.542;2023-02-15T05:51:03;-4.70;99.90
19862;DHT22;10093;48.148;8.542;2023-02-15T05:53:30;-4.60;99.90
19862;DHT22;10093;48.148;8.542;2023-02-15T05:55:56;-4.70;99.90
19862;DHT22;10093;48.148;8.542;2023-02-15T05:58:31;-4.60;99.90
19862;DHT22;10093;48.148;8.542;2023-02-15T06:00:57;-4.80;99.90
19862;DHT22;10093;48.148;8.542;2023-02-15T06:03:23;-4.90;99.90
19862;DHT22;10093;48.148;8.542;2023-02-15T06:05:51;-5.00;99.90
19862;DHT22;10093;48.148;8.542;2023-02-15T06:08:17;-4.90;99.90
19862;DHT22;10093;48.148;8.542;2023-02-15T06:10:43;-4.70;99.90
19862;DHT22;10093;48.148;8.542;2023-02-15T06:13:10;-4.60;99.90
19862;DHT22;10093;48.148;8.542;2023-02-15T06:15:36;-4.50;99.90
19862;DHT22;10093;48.148;8.542;2023-02-15T06:18:01;-4.50;99.90
19862;DHT22;10093;48.148;8.542;2023-02-15T06:20:27;-4.50;99.90
19862;DHT22;10093;48.148;8.542;2023-02-15T06:22:53;-4.60;99.90
19862;DHT22;10093;48.148;8.542;2023-02-15T06:25:18;-4.60;99.90
19862;DHT22;10093;48.148;8.542;2023-02-15T06:27:44;-4.70;99.90
19862;DHT22;10093;48.148;8.542;2023-02-15T06:30:10;-4.80;99.90
19862;DHT22;10093;48.148;8.542;2023-02-15T06:32:36;-4.70;99.90
19862;DHT22;10093;48.148;8.542;2023-02-15T06:35:02;-4.70;99.90
19862;DHT22;10093;48.148;8.542;2023-02-15T06:37:27;-4.60;99.90
19862;DHT22;10093;48.148;8.542;2023-02-15T06:39:53;-4.60;99.90
19862;DHT22;10093;48.148;8.542;2023-02-15T06:42:19;-4.50;99.90
19862;DHT22;10093;48.148;8.542;2023-02-15T06:44:45;-4.40;99.90
19862;DHT22;10093;48.148;8.542;2023-02-15T06:47:10;-4.50;99.90
19862;DHT22;10093;48.148;8.542;2023-02-15T06:49:36;-4.40;99.90
19862;DHT22;10093;48.148;8.542;2023-02-15T06:52:03;-4.30;99.90
19862;DHT22;10093;48.148;8.542;2023-02-15T06:54:28;-4.20;99.90
19862;DHT22;10093;48.148;8.542;2023-02-15T06:56:54;-3.70;99.90
19862;DHT22;10093;48.148;8.542;2023-02-15T06:59:20;-2.80;99.90
19862;DHT22;10093;48.148;8.542;2023-02-15T07:01:45;-2.00;99.90
19862;DHT22;10093;48.148;8.542;2023-02-15T07:04:11;-1.10;99.90
19862;DHT22;10093;48.148;8.542;2023-02-15T07:06:36;-0.40;99.90
19862;DHT22;10093;48.148;8.542;2023-02-15T07:09:03;0.10;99.90
19862;DHT22;10093;48.148;8.542;2023-02-15T07:11:30;0.90;99.90
19862;DHT22;10093;48.148;8.542;2023-02-15T07:14:15;1.90;99.90
19862;DHT22;10093;48.148;8.542;2023-02-15T07:16:40;2.80;99.90
19862;DHT22;10093;48.148;8.542;2023-02-15T07:19:06;3.50;99.90
19862;DHT22;10093;48.148;8.542;2023-02-15T07:21:33;3.80;99.90
19862;DHT22;10093;48.148;8.542;2023-02-15T07:23:59;4.10;99.90
19862;DHT22;10093;48.148;8.542;2023-02-15T07:26:25;3.80;99.90
19862;DHT22;10093;48.148;8.542;2023-02-15T07:28:51;4.70;99.90
19862;DHT22;10093;48.148;8.542;2023-02-15T07:31:16;6.20;99.90
19862;DHT22;10093;48.148;8.542;2023-02-15T07:33:42;7.50;99.90
19862;DHT22;10093;48.148;8.542;2023-02-15T07:36:08;8.30;99.90
19862;DHT22;10093;48.148;8.542;2023-02-15T07:38:38;9.50;99.90
19862;DHT22;10093;48.148;8.542;2023-02-15T07:41:06;10.60;99.90
19862;DHT22;10093;48.148;8.542;2023-02-15T07:43:37;11.20;99.90
19862;DHT22;10093;48.148;8.542;2023-02-15T07:46:08;10.90;99.90
19862;DHT22;10093;48.148;8.542;2023-02-15T07:48:34;11.10;99.90
19862;DHT22;10093;48.148;8.542;2023-02-15T07:51:01;11.60;99.90
19862;DHT22;10093;48.148;8.542;2023-02-15T07:53:28;11.20;99.90
19862;DHT22;10093;48.148;8.542;2023-02-15T07:55:53;11.50;99.90
19862;DHT22;10093;48.148;8.542;2023-02-15T07:58:20;11.70;99.90
19862;DHT22;10093;48.148;8.542;2023-02-15T08:00:46;12.60;99.90
19862;DHT22;10093;48.148;8.542;2023-02-15T08:03:26;13.70;99.90
19862;DHT22;10093;48.148;8.542;2023-02-15T08:05:58;13.10;99.90
19862;DHT22;10093;48.148;8.542;2023-02-15T08:08:25;13.10;99.90
19862;DHT22;10093;48.148;8.542;2023-02-15T08:11:05;13.70;99.90
19862;DHT22;10093;48.148;8.542;2023-02-15T08:14:00;14.40;99.90
19862;DHT22;10093;48.148;8.542;2023-02-15T08:21:44;16.50;99.90
19862;DHT22;10093;48.148;8.542;2023-02-15T08:24:12;17.30;99.90
19862;DHT22;10093;48.148;8.542;2023-02-15T08:26:38;18.10;99.20
19862;DHT22;10093;48.148;8.542;2023-02-15T08:29:08;17.80;98.40
19862;DHT22;10093;48.148;8.542;2023-02-15T08:31:34;17.90;98.20
19862;DHT22;10093;48.148;8.542;2023-02-15T08:34:00;17.90;98.10
19862;DHT22;10093;48.148;8.542;2023-02-15T08:36:28;18.60;97.80
19862;DHT22;10093;48.148;8.542;2023-02-15T08:38:57;19.50;96.70
19862;DHT22;10093;48.148;8.542;2023-02-15T08:41:24;19.90;96.40
19862;DHT22;10093;48.148;8.542;2023-02-15T08:43:52;20.30;95.70
19862;DHT22;10093;48.148;8.542;2023-02-15T08:46:19;20.10;95.70
19862;DHT22;10093;48.148;8.542;2023-02-15T08:48:46;19.60;95.10
19862;DHT22;10093;48.148;8.542;2023-02-15T08:51:13;18.70;95.40
19862;DHT22;10093;48.148;8.542;2023-02-15T08:53:40;17.80;97.30
19862;DHT22;10093;48.148;8.542;2023-02-15T08:56:07;16.40;97.80
19862;DHT22;10093;48.148;8.542;2023-02-15T08:58:34;16.80;97.80
19862;DHT22;10093;48.148;8.542;2023-02-15T09:01:00;17.60;96.80
19862;DHT22;10093;48.148;8.542;2023-02-15T09:03:27;18.40;97.00
19862;DHT22;10093;48.148;8.542;2023-02-15T09:05:59;19.50;96.60
19862;DHT22;10093;48.148;8.542;2023-02-15T09:08:26;20.20;95.90
19862;DHT22;10093;48.148;8.542;2023-02-15T09:10:52;19.80;95.20
19862;DHT22;10093;48.148;8.542;2023-02-15T09:13:18;19.70;95.70
19862;DHT22;10093;48.148;8.542;2023-02-15T09:15:44;19.20;97.30
19862;DHT22;10093;48.148;8.542;2023-02-15T09:18:09;19.80;96.30
19862;DHT22;10093;48.148;8.542;2023-02-15T09:20:36;21.00;95.80
19862;DHT22;10093;48.148;8.542;2023-02-15T09:23:02;21.90;94.60
19862;DHT22;10093;48.148;8.542;2023-02-15T09:25:28;22.40;93.80
19862;DHT22;10093;48.148;8.542;2023-02-15T09:27:54;20.40;95.80
19862;DHT22;10093;48.148;8.542;2023-02-15T09:30:19;21.20;94.50
19862;DHT22;10093;48.148;8.542;2023-02-15T09:32:45;21.40;94.70
19862;DHT22;10093;48.148;8.542;2023-02-15T09:35:12;21.80;94.10
19862;DHT22;10093;48.148;8.542;2023-02-15T09:37:38;20.60;94.70
19862;DHT22;10093;48.148;8.542;2023-02-15T09:40:04;21.50;93.90
19862;DHT22;10093;48.148;8.542;2023-02-15T09:45:37;21.90;93.10
19862;DHT22;10093;48.148;8.542;2023-02-15T09:51:13;21.20;94.30
19862;DHT22;10093;48.148;8.542;2023-02-15T09:53:50;21.40;94.20
19862;DHT22;10093;48.148;8.542;2023-02-15T10:04:54;21.90;93.10
19862;DHT22;10093;48.148;8.542;2023-02-15T10:07:42;21.10;93.80
19862;DHT22;10093;48.148;8.542;2023-02-15T10:10:30;21.70;93.40
19862;DHT22;10093;48.148;8.542;2023-02-15T10:26:27;21.30;93.40
19862;DHT22;10093;48.148;8.542;2023-02-15T10:29:00;22.10;93.10
19862;DHT22;10093;48.148;8.542;2023-02-15T10:31:51;18.30;95.60
19862;DHT22;10093;48.148;8.542;2023-02-15T10:34:27;19.20;96.50
19862;DHT22;10093;48.148;8.542;2023-02-15T10:48:26;18.90;97.80
19862;DHT22;10093;48.148;8.542;2023-02-15T10:51:02;17.30;98.10
19862;DHT22;10093;48.148;8.542;2023-02-15T11:06:59;18.10;98.90
19862;DHT22;10093;48.148;8.542;2023-02-15T11:09:38;19.50;98.20
19862;DHT22;10093;48.148;8.542;2023-02-15T11:12:12;20.00;97.00
19862;DHT22;10093;48.148;8.542;2023-02-15T11:17:16;21.80;95.00
19862;DHT22;10093;48.148;8.542;2023-02-15T11:20:16;20.60;96.30
19862;DHT22;10093;48.148;8.542;2023-02-15T11:22:47;18.80;97.60
19862;DHT22;10093;48.148;8.542;2023-02-15T11:25:31;19.80;97.30
19862;DHT22;10093;48.148;8.542;2023-02-15T11:27:58;19.60;96.10
19862;DHT22;10093;48.148;8.542;2023-02-15T11:30:33;19.30;97.30
19862;DHT22;10093;48.148;8.542;2023-02-15T11:33:05;19.40;95.70
19862;DHT22;10093;48.148;8.542;2023-02-15T11:38:18;21.40;93.70
19862;DHT22;10093;48.148;8.542;2023-02-15T11:40:54;21.60;94.90
19862;DHT22;10093;48.148;8.542;2023-02-15T11:43:42;23.40;92.80
19862;DHT22;10093;48.148;8.542;2023-02-15T11:46:11;24.70;90.90
19862;DHT22;10093;48.148;8.542;2023-02-15T11:48:37;24.40;90.20
19862;DHT22;10093;48.148;8.542;2023-02-15T11:51:04;23.20;92.50
19862;DHT22;10093;48.148;8.542;2023-02-15T11:53:32;22.10;89.50
19862;DHT22;10093;48.148;8.542;2023-02-15T11:55:59;20.60;88.00
19862;DHT22;10093;48.148;8.542;2023-02-15T12:01:24;21.70;89.50
19862;DHT22;10093;48.148;8.542;2023-02-15T12:04:12;21.60;86.90
19862;DHT22;10093;48.148;8.542;2023-02-15T12:06:48;23.20;87.80
19862;DHT22;10093;48.148;8.542;2023-02-15T12:12:29;23.50;86.20
19862;DHT22;10093;48.148;8.542;2023-02-15T12:14:57;23.50;85.10
19862;DHT22;10093;48.148;8.542;2023-02-15T12:17:26;22.40;90.50
19862;DHT22;10093;48.148;8.542;2023-02-15T12:19:55;21.20;90.80
19862;DHT22;10093;48.148;8.542;2023-02-15T12:22:31;20.70;91.30
19862;DHT22;10093;48.148;8.542;2023-02-15T12:25:01;21.90;90.30
19862;DHT22;10093;48.148;8.542;2023-02-15T12:27:33;19.80;90.70
19862;DHT22;10093;48.148;8.542;2023-02-15T12:30:03;18.70;92.40
19862;DHT22;10093;48.148;8.542;2023-02-15T12:32:47;18.70;92.10
19862;DHT22;10093;48.148;8.542;2023-02-15T12:35:27;18.60;92.30
19862;DHT22;10093;48.148;8.542;2023-02-15T12:37:55;18.80;93.60
19862;DHT22;10093;48.148;8.542;2023-02-15T12:40:24;18.60;92.90
19862;DHT22;10093;48.148;8.542;2023-02-15T12:42:51;19.80;91.70
19862;DHT22;10093;48.148;8.542;2023-02-15T12:45:37;20.40;91.50
19862;DHT22;10093;48.148;8.542;2023-02-15T12:50:34;22.40;90.70
19862;DHT22;10093;48.148;8.542;2023-02-15T12:55:56;24.40;86.90
19862;DHT22;10093;48.148;8.542;2023-02-15T12:58:30;23.90;87.30
19862;DHT22;10093;48.148;8.542;2023-02-15T13:01:15;24.10;86.50
19862;DHT22;10093;48.148;8.542;2023-02-15T13:04:04;24.80;85.90
19862;DHT22;10093;48.148;8.542;2023-02-15T13:06:34;25.20;86.00
19862;DHT22;10093;48.148;8.542;2023-02-15T13:09:15;25.10;87.40
19862;DHT22;10093;48.148;8.542;2023-02-15T13:11:42;24.60;87.00
19862;DHT22;10093;48.148;8.542;2023-02-15T13:14:45;25.70;85.50
19862;DHT22;10093;48.148;8.542;2023-02-15T13:17:12;23.60;86.30
19862;DHT22;10093;48.148;8.542;2023-02-15T13:19:46;21.70;90.30
19862;DHT22;10093;48.148;8.542;2023-02-15T13:25:20;22.80;90.00
19862;DHT22;10093;48.148;8.542;2023-02-15T13:27:50;22.80;89.80
19862;DHT22;10093;48.148;8.542;2023-02-15T13:30:24;24.20;87.30
19862;DHT22;10093;48.148;8.542;2023-02-15T13:33:10;23.80;88.90
19862;DHT22;10093;48.148;8.542;2023-02-15T13:35:44;22.30;90.00
19862;DHT22;10093;48.148;8.542;2023-02-15T13:41:11;20.40;91.80
19862;DHT22;10093;48.148;8.542;2023-02-15T13:46:21;21.40;90.80
19862;DHT22;10093;48.148;8.542;2023-02-15T13:51:43;24.70;85.80
19862;DHT22;10093;48.148;8.542;2023-02-15T13:54:53;25.00;87.40
19862;DHT22;10093;48.148;8.542;2023-02-15T14:03:03;23.80;87.10
19862;DHT22;10093;48.148;8.542;2023-02-15T14:08:11;24.30;85.90
19862;DHT22;10093;48.148;8.542;2023-02-15T14:10:43;24.10;86.20
19862;DHT22;10093;48.148;8.542;2023-02-15T14:18:48;25.30;85.80
19862;DHT22;10093;48.148;8.542;2023-02-15T14:21:35;25.50;84.80
19862;DHT22;10093;48.148;8.542;2023-02-15T14:26:49;25.10;85.50
19862;DHT22;10093;48.148;8.542;2023-02-15T14:32:13;24.70;84.00
19862;DHT22;10093;48.148;8.542;2023-02-15T14:34:52;25.30;86.00
19862;DHT22;10093;48.148;8.542;2023-02-15T14:37:41;25.90;85.50
19862;DHT22;10093;48.148;8.542;2023-02-15T14:43:30;24.10;84.50
19862;DHT22;10093;48.148;8.542;2023-02-15T14:46:25;24.60;85.70
19862;DHT22;10093;48.148;8.542;2023-02-15T14:48:57;25.70;83.60
19862;DHT22;10093;48.148;8.542;2023-02-15T14:54:07;25.20;86.10
19862;DHT22;10093;48.148;8.542;2023-02-15T14:56:33;22.20;88.00
19862;DHT22;10093;48.148;8.542;2023-02-15T14:59:11;21.40;91.20
19862;DHT22;10093;48.148;8.542;2023-02-15T15:01:38;21.60;91.90
19862;DHT22;10093;48.148;8.542;2023-02-15T15:04:07;22.60;91.80
19862;DHT22;10093;48.148;8.542;2023-02-15T15:06:36;22.80;90.70
19862;DHT22;10093;48.148;8.542;2023-02-15T15:11:43;22.10;92.00
19862;DHT22;10093;48.148;8.542;2023-02-15T15:14:11;23.10;90.50
19862;DHT22;10093;48.148;8.542;2023-02-15T15:16:55;24.10;90.10
19862;DHT22;10093;48.148;8.542;2023-02-15T15:22:18;22.90;90.30
19862;DHT22;10093;48.148;8.542;2023-02-15T15:27:47;22.50;90.80
19862;DHT22;10093;48.148;8.542;2023-02-15T15:50:17;20.40;91.60
19862;DHT22;10093;48.148;8.542;2023-02-15T15:52:47;20.10;91.10
19862;DHT22;10093;48.148;8.542;2023-02-15T15:55:18;19.70;91.60
19862;DHT22;10093;48.148;8.542;2023-02-15T15:57:46;19.30;91.90
19862;DHT22;10093;48.148;8.542;2023-02-15T16:00:26;18.80;92.00
19862;DHT22;10093;48.148;8.542;2023-02-15T16:02:54;18.20;92.90
19862;DHT22;10093;48.148;8.542;2023-02-15T16:05:21;17.80;93.40
19862;DHT22;10093;48.148;8.542;2023-02-15T16:07:48;17.40;93.40
19862;DHT22;10093;48.148;8.542;2023-02-15T16:10:21;16.90;94.30
19862;DHT22;10093;48.148;8.542;2023-02-15T16:12:49;16.20;93.90
19862;DHT22;10093;48.148;8.542;2023-02-15T16:15:17;15.50;94.80
19862;DHT22;10093;48.148;8.542;2023-02-15T16:17:45;15.00;95.50
19862;DHT22;10093;48.148;8.542;2023-02-15T16:20:32;14.50;96.20
19862;DHT22;10093;48.148;8.542;2023-02-15T16:23:31;14.00;96.80
19862;DHT22;10093;48.148;8.542;2023-02-15T16:28:38;12.70;98.30
19862;DHT22;10093;48.148;8.542;2023-02-15T16:31:12;12.20;98.80
19862;DHT22;10093;48.148;8.542;2023-02-15T16:33:39;11.50;99.90
19862;DHT22;10093;48.148;8.542;2023-02-15T16:36:10;10.80;99.90
19862;DHT22;10093;48.148;8.542;2023-02-15T16:41:09;9.70;99.90
19862;DHT22;10093;48.148;8.542;2023-02-15T16:43:37;9.30;99.90
19862;DHT22;10093;48.148;8.542;2023-02-15T16:46:08;8.90;99.90
19862;DHT22;10093;48.148;8.542;2023-02-15T16:48:39;8.90;99.90
19862;DHT22;10093;48.148;8.542;2023-02-15T16:51:06;8.80;99.90
19862;DHT22;10093;48.148;8.542;2023-02-15T16:53:32;8.80;99.90
19862;DHT22;10093;48.148;8.542;2023-02-15T16:56:01;8.70;99.90
19862;DHT22;10093;48.148;8.542;2023-02-15T16:58:42;8.60;99.90
19862;DHT22;10093;48.148;8.542;2023-02-15T17:01:11;8.00;99.90
19862;DHT22;10093;48.148;8.542;2023-02-15T17:03:39;7.50;99.90
19862;DHT22;10093;48.148;8.542;2023-02-15T17:06:22;7.10;99.90
19862;DHT22;10093;48.148;8.542;2023-02-15T17:08:48;6.80;99.90
19862;DHT22;10093;48.148;8.542;2023-02-15T17:11:22;6.40;99.90
19862;DHT22;10093;48.148;8.542;2023-02-15T17:19:09;6.30;99.90
19862;DHT22;10093;48.148;8.542;2023-02-15T17:21:47;6.00;99.90
19862;DHT22;10093;48.148;8.542;2023-02-15T17:24:22;5.70;99.90
19862;DHT22;10093;48.148;8.542;2023-02-15T17:26:53;5.40;99.90
19862;DHT22;10093;48.148;8.542;2023-02-15T17:29:38;5.30;99.90
19862;DHT22;10093;48.148;8.542;2023-02-15T17:32:09;5.30;99.90
19862;DHT22;10093;48.148;8.542;2023-02-15T17:35:16;5.10;99.90
19862;DHT22;10093;48.148;8.542;2023-02-15T17:37:48;4.90;99.90
19862;DHT22;10093;48.148;8.542;2023-02-15T17:40:19;4.70;99.90
19862;DHT22;10093;48.148;8.542;2023-02-15T17:42:46;4.60;99.90
19862;DHT22;10093;48.148;8.542;2023-02-15T17:45:11;4.50;99.90
19862;DHT22;10093;48.148;8.542;2023-02-15T17:47:37;4.30;99.90
19862;DHT22;10093;48.148;8.542;2023-02-15T17:50:04;4.10;99.90
19862;DHT22;10093;48.148;8.542;2023-02-15T17:52:30;4.00;99.90
19862;DHT22;10093;48.148;8.542;2023-02-15T17:54:56;3.80;99.90
19862;DHT22;10093;48.148;8.542;2023-02-15T17:57:40;3.80;99.90
19862;DHT22;10093;48.148;8.542;2023-02-15T18:00:07;3.70;99.90
19862;DHT22;10093;48.148;8.542;2023-02-15T18:02:51;3.80;99.90
19862;DHT22;10093;48.148;8.542;2023-02-15T18:05:36;3.90;99.90
19862;DHT22;10093;48.148;8.542;2023-02-15T18:08:25;4.10;99.90
19862;DHT22;10093;48.148;8.542;2023-02-15T18:11:11;4.40;99.90
19862;DHT22;10093;48.148;8.542;2023-02-15T18:13:55;4.40;99.90
19862;DHT22;10093;48.148;8.542;2023-02-15T18:16:26;4.10;99.90
19862;DHT22;10093;48.148;8.542;2023-02-15T18:18:52;3.80;99.90
19862;DHT22;10093;48.148;8.542;2023-02-15T18:21:18;3.60;99.90
19862;DHT22;10093;48.148;8.542;2023-02-15T18:23:44;3.20;99.90
19862;DHT22;10093;48.148;8.542;2023-02-15T18:26:17;3.10;99.90
19862;DHT22;10093;48.148;8.542;2023-02-15T18:28:43;2.70;99.90
19862;DHT22;10093;48.148;8.542;2023-02-15T18:31:10;2.80;99.90
19862;DHT22;10093;48.148;8.542;2023-02-15T18:33:51;3.10;99.90
19862;DHT22;10093;48.148;8.542;2023-02-15T18:36:25;3.20;99.90
19862;DHT22;10093;48.148;8.542;2023-02-15T18:38:52;3.10;99.90
19862;DHT22;10093;48.148;8.542;2023-02-15T18:41:19;2.60;99.90
19862;DHT22;10093;48.148;8.542;2023-02-15T18:43:46;2.30;99.90
19862;DHT22;10093;48.148;8.542;2023-02-15T18:46:13;2.20;99.90
19862;DHT22;10093;48.148;8.542;2023-02-15T18:48:39;2.00;99.90
19862;DHT22;10093;48.148;8.542;2023-02-15T18:51:25;2.10;99.90
19862;DHT22;10093;48.148;8.542;2023-02-15T18:53:52;1.80;99.90